createdAt,value
2018-06-19T00:01:53.670Z,2.87
2018-06-19T00:04:22.746Z,2.77
2018-06-19T00:06:51.971Z,2.63
2018-06-19T00:09:21.060Z,2.87
2018-06-19T00:11:50.135Z,3.00
2018-06-19T00:14:19.201Z,2.77
2018-06-19T00:16:48.367Z,2.53
2018-06-19T00:19:17.478Z,2.90
2018-06-19T00:21:49.917Z,2.77
2018-06-19T00:24:19.029Z,3.87
2018-06-19T00:26:48.087Z,2.50
2018-06-19T00:29:17.467Z,2.70
2018-06-19T00:31:46.512Z,2.80
2018-06-19T00:34:15.564Z,2.87
2018-06-19T00:36:44.653Z,3.40
2018-06-19T00:39:13.916Z,2.80
2018-06-19T00:41:42.740Z,2.57
2018-06-19T00:44:12.202Z,2.23
2018-06-19T00:46:44.771Z,2.30
2018-06-19T00:49:14.207Z,2.53
2018-06-19T00:51:42.981Z,2.40
2018-06-19T00:54:11.975Z,2.93
2018-06-19T00:56:54.863Z,2.93
2018-06-19T00:59:23.972Z,2.57
2018-06-19T01:01:53.980Z,2.60
2018-06-19T01:04:23.040Z,2.60
2018-06-19T01:06:52.208Z,2.53
2018-06-19T01:09:21.436Z,2.40
2018-06-19T01:11:50.534Z,2.20
2018-06-19T01:14:19.824Z,2.87
2018-06-19T01:16:48.904Z,2.70
2018-06-19T01:19:18.004Z,2.60
2018-06-19T01:21:47.094Z,2.63
2018-06-19T01:24:16.135Z,2.63
2018-06-19T01:26:45.228Z,2.50
2018-06-19T01:29:14.474Z,2.70
2018-06-19T01:31:43.526Z,2.47
2018-06-19T01:34:12.605Z,2.80
2018-06-19T01:36:41.638Z,3.03
2018-06-19T01:39:11.304Z,2.70
2018-06-19T01:41:40.364Z,2.80
2018-06-19T01:44:09.489Z,2.67
2018-06-19T01:46:38.541Z,3.00
2018-06-19T01:49:07.601Z,2.90
2018-06-19T01:51:36.680Z,2.63
2018-06-19T01:54:05.760Z,3.13
2018-06-19T01:56:34.951Z,2.73
2018-06-19T01:59:04.053Z,3.37
2018-06-19T02:01:34.147Z,2.93
2018-06-19T02:04:03.240Z,2.70
2018-06-19T02:06:32.376Z,2.83
2018-06-19T02:09:01.519Z,3.10
2018-06-19T02:11:30.644Z,3.60
2018-06-19T02:13:59.711Z,4.73
2018-06-19T02:16:28.772Z,4.20
2018-06-19T02:18:57.874Z,3.20
2018-06-19T02:21:26.987Z,2.90
2018-06-19T02:23:56.039Z,2.57
2018-06-19T02:26:25.796Z,3.23
2018-06-19T02:28:54.832Z,2.57
2018-06-19T02:31:26.928Z,2.80
2018-06-19T02:33:55.968Z,3.37
2018-06-19T02:36:25.064Z,2.77
2018-06-19T02:38:54.362Z,3.07
2018-06-19T02:41:23.440Z,2.97
2018-06-19T02:43:52.587Z,3.13
2018-06-19T02:46:21.745Z,3.40
2018-06-19T02:48:50.927Z,3.07
2018-06-19T02:51:20.691Z,3.77
2018-06-19T02:53:49.898Z,3.90
2018-06-19T02:56:18.912Z,3.70
2018-06-19T02:58:47.975Z,3.67
2018-06-19T03:01:17.067Z,3.20
2018-06-19T03:03:46.117Z,3.37
2018-06-19T03:06:15.191Z,3.60
2018-06-19T03:08:44.329Z,3.60
2018-06-19T03:11:13.277Z,3.97
2018-06-19T03:13:42.366Z,3.60
2018-06-19T03:16:11.154Z,3.40
2018-06-19T03:18:40.206Z,3.57
2018-06-19T03:21:09.281Z,3.43
2018-06-19T03:23:38.380Z,3.57
2018-06-19T03:26:07.454Z,3.20
2018-06-19T03:28:36.496Z,3.40
2018-06-19T03:31:05.569Z,3.40
2018-06-19T03:33:34.636Z,3.07
2018-06-19T03:36:03.776Z,3.73
2018-06-19T03:38:32.833Z,3.10
2018-06-19T03:41:01.940Z,3.37
2018-06-19T03:43:31.066Z,3.30
2018-06-19T03:46:00.100Z,3.30
2018-06-19T03:48:29.142Z,3.33
2018-06-19T03:50:58.312Z,3.63
2018-06-19T03:53:27.397Z,3.67
2018-06-19T03:55:56.472Z,3.80
2018-06-19T03:58:25.652Z,2.97
2018-06-19T04:00:54.768Z,3.70
2018-06-19T04:03:23.540Z,4.27
2018-06-19T04:05:52.473Z,4.20
2018-06-19T04:08:21.528Z,4.60
2018-06-19T04:10:50.323Z,3.93
2018-06-19T04:13:19.285Z,3.93
2018-06-19T04:15:48.364Z,3.50
2018-06-19T04:18:17.540Z,4.00
2018-06-19T04:20:46.615Z,3.43
2018-06-19T04:23:15.685Z,3.20
2018-06-19T04:25:44.560Z,3.70
2018-06-19T04:28:14.228Z,3.90
2018-06-19T04:30:44.003Z,4.10
2018-06-19T04:33:12.883Z,3.70
2018-06-19T04:35:41.926Z,3.90
2018-06-19T04:38:10.976Z,3.50
2018-06-19T04:40:40.029Z,4.40
2018-06-19T04:43:09.093Z,4.37
2018-06-19T04:45:38.252Z,3.43
2018-06-19T04:48:07.363Z,3.70
2018-06-19T04:50:36.452Z,3.83
2018-06-19T04:53:05.578Z,4.10
2018-06-19T04:55:34.648Z,4.30
2018-06-19T04:58:04.340Z,4.53
2018-06-19T05:00:33.452Z,4.10
2018-06-19T05:03:03.044Z,4.40
2018-06-19T05:05:32.115Z,4.47
2018-06-19T05:08:01.656Z,4.57
2018-06-19T05:10:30.736Z,4.27
2018-06-19T05:12:59.835Z,4.07
2018-06-19T05:15:28.914Z,4.17
2018-06-19T05:17:57.992Z,3.90
2018-06-19T05:20:27.236Z,4.00
2018-06-19T05:22:56.303Z,3.73
2018-06-19T05:25:25.406Z,3.57
2018-06-19T05:27:54.483Z,4.37
2018-06-19T05:30:23.761Z,4.03
2018-06-19T05:32:52.768Z,3.93
2018-06-19T05:35:21.797Z,4.17
2018-06-19T05:37:51.024Z,3.80
2018-06-19T05:40:20.081Z,5.77
2018-06-19T05:42:49.188Z,3.77
2018-06-19T05:45:18.340Z,3.77
2018-06-19T05:47:48.455Z,4.97
2018-06-19T05:50:17.532Z,5.37
2018-06-19T05:52:46.674Z,6.17
2018-06-19T05:55:15.693Z,4.17
2018-06-19T05:57:44.472Z,5.70
2018-06-19T06:00:13.513Z,4.70
2018-06-19T06:02:42.557Z,5.53
2018-06-19T06:05:11.353Z,4.60
2018-06-19T06:07:40.846Z,4.63
2018-06-19T06:10:10.149Z,4.47
2018-06-19T06:12:39.259Z,4.50
2018-06-19T06:15:08.309Z,3.80
2018-06-19T06:17:37.386Z,4.20
2018-06-19T06:20:07.088Z,4.47
2018-06-19T06:22:36.141Z,4.27
2018-06-19T06:25:05.331Z,3.97
2018-06-19T06:27:34.408Z,3.53
2018-06-19T06:30:03.780Z,3.00
2018-06-19T06:32:32.920Z,3.50
2018-06-19T06:35:01.994Z,3.00
2018-06-19T06:37:31.120Z,2.97
2018-06-19T06:40:00.415Z,3.10
2018-06-19T06:42:29.512Z,3.10
2018-06-19T06:44:58.309Z,4.43
2018-06-19T06:47:27.292Z,3.60
2018-06-19T06:49:56.382Z,3.13
2018-06-19T06:52:25.222Z,2.80
2018-06-19T06:54:54.268Z,2.97
2018-06-19T06:57:27.022Z,3.23
2018-06-19T06:59:56.103Z,3.20
2018-06-19T07:02:25.464Z,3.40
2018-06-19T07:04:55.412Z,3.10
2018-06-19T07:07:24.533Z,2.97
2018-06-19T07:09:53.610Z,3.10
2018-06-19T07:12:22.655Z,2.87
2018-06-19T07:14:51.459Z,3.13
2018-06-19T07:17:20.532Z,3.00
2018-06-19T07:19:49.526Z,3.03
2018-06-19T07:22:18.420Z,3.17
2018-06-19T07:24:47.745Z,3.03
2018-06-19T07:27:16.809Z,2.83
2018-06-19T07:29:45.603Z,3.20
2018-06-19T07:32:14.573Z,2.57
2018-06-19T07:34:43.766Z,3.10
2018-06-19T07:37:12.861Z,2.87
2018-06-19T07:39:41.979Z,2.53
2018-06-19T07:42:11.071Z,3.37
2018-06-19T07:44:40.224Z,3.10
2018-06-19T07:47:09.296Z,2.63
2018-06-19T07:49:38.569Z,2.60
2018-06-19T07:52:07.626Z,2.80
2018-06-19T07:54:36.814Z,2.73
2018-06-19T07:57:05.883Z,2.60
2018-06-19T07:59:35.045Z,2.73
2018-06-19T08:02:04.859Z,2.20
2018-06-19T08:04:33.956Z,2.77
2018-06-19T08:07:07.244Z,2.20
2018-06-19T08:09:36.730Z,2.60
2018-06-19T08:12:06.534Z,2.40
2018-06-19T08:14:35.841Z,2.60
2018-06-19T08:17:05.022Z,2.70
2018-06-19T08:19:34.052Z,2.33
2018-06-19T08:22:03.451Z,3.00
2018-06-19T08:24:32.799Z,2.20
2018-06-19T08:27:01.924Z,2.57
2018-06-19T08:29:30.980Z,2.23
2018-06-19T08:32:00.220Z,2.27
2018-06-19T08:34:29.299Z,2.33
2018-06-19T08:36:58.397Z,2.60
2018-06-19T08:39:27.444Z,2.57
2018-06-19T08:41:56.515Z,2.90
2018-06-19T08:44:25.612Z,2.40
2018-06-19T08:46:54.688Z,2.50
2018-06-19T08:49:23.744Z,2.57
2018-06-19T08:51:53.010Z,2.63
2018-06-19T08:54:22.351Z,2.50
2018-06-19T08:56:51.473Z,2.13
2018-06-19T08:59:20.521Z,2.43
2018-06-19T09:01:50.391Z,2.60
2018-06-19T09:04:19.626Z,2.30
2018-06-19T09:06:48.690Z,2.53
2018-06-19T09:09:18.089Z,2.53
2018-06-19T09:11:47.703Z,2.30
2018-06-19T09:14:16.812Z,2.80
2018-06-19T09:16:45.607Z,2.30
2018-06-19T09:19:14.725Z,2.20
2018-06-19T09:21:44.156Z,2.20
2018-06-19T09:24:13.210Z,2.23
2018-06-19T09:26:42.298Z,2.13
2018-06-19T09:29:11.348Z,2.40
2018-06-19T09:31:40.537Z,2.30
2018-06-19T09:34:09.727Z,2.40
2018-06-19T09:36:39.037Z,2.60
2018-06-19T09:39:10.006Z,2.50
2018-06-19T09:41:39.296Z,2.63
2018-06-19T09:44:08.459Z,2.63
2018-06-19T09:46:37.572Z,2.57
2018-06-19T09:49:06.611Z,2.80
2018-06-19T09:51:36.188Z,2.53
2018-06-19T09:54:05.645Z,2.33
2018-06-19T09:56:34.773Z,2.67
2018-06-19T09:59:04.216Z,1.90
2018-06-19T10:01:33.318Z,2.60
2018-06-19T10:04:03.634Z,2.50
2018-06-19T10:06:32.697Z,2.43
2018-06-19T10:09:01.889Z,3.47
2018-06-19T10:11:30.974Z,2.47
2018-06-19T10:14:00.137Z,2.47
2018-06-19T10:16:29.200Z,2.43
2018-06-19T10:18:58.353Z,2.60
2018-06-19T10:21:27.408Z,2.47
2018-06-19T10:23:56.652Z,2.50
2018-06-19T10:26:25.702Z,2.43
2018-06-19T10:28:54.777Z,3.37
2018-06-19T10:31:23.831Z,2.47
2018-06-19T10:33:53.293Z,3.03
2018-06-19T10:36:23.082Z,2.70
2018-06-19T10:38:51.867Z,2.63
2018-06-19T10:41:20.956Z,2.63
2018-06-19T10:43:50.041Z,3.60
2018-06-19T10:46:19.105Z,3.07
2018-06-19T10:48:48.193Z,2.80
2018-06-19T10:51:17.277Z,3.00
2018-06-19T10:53:46.698Z,3.43
2018-06-19T10:56:15.752Z,3.60
2018-06-19T10:58:44.995Z,3.30
2018-06-19T11:01:14.300Z,3.60
2018-06-19T11:03:44.038Z,3.40
2018-06-19T11:06:13.100Z,3.07
2018-06-19T11:08:42.343Z,3.27
2018-06-19T11:11:11.588Z,3.17
2018-06-19T11:13:40.654Z,3.40
2018-06-19T11:16:09.714Z,4.40
2018-06-19T11:18:38.796Z,3.50
2018-06-19T11:21:07.905Z,3.07
2018-06-19T11:23:37.067Z,3.00
2018-06-19T11:26:06.294Z,3.30
2018-06-19T11:28:35.344Z,3.00
2018-06-19T11:31:04.464Z,3.00
2018-06-19T11:33:33.589Z,3.30
2018-06-19T11:36:02.646Z,3.07
2018-06-19T11:38:31.929Z,3.40
2018-06-19T11:41:00.927Z,3.47
2018-06-19T11:43:30.839Z,3.50
2018-06-19T11:45:59.909Z,3.47
2018-06-19T11:48:28.948Z,2.80
2018-06-19T11:50:58.045Z,2.90
2018-06-19T11:53:27.261Z,2.53
2018-06-19T11:55:56.580Z,2.70
2018-06-19T11:58:25.638Z,2.83
2018-06-19T12:00:54.814Z,2.50
2018-06-19T12:03:23.911Z,2.40
2018-06-19T12:05:54.104Z,2.60
2018-06-19T12:08:23.149Z,2.37
2018-06-19T12:10:52.748Z,2.57
2018-06-19T12:13:21.820Z,2.63
2018-06-19T12:15:50.869Z,2.33
2018-06-19T12:18:20.260Z,2.23
2018-06-19T12:20:50.296Z,2.30
2018-06-19T12:23:19.593Z,3.00
2018-06-19T12:25:48.721Z,2.37
2018-06-19T12:28:18.014Z,2.37
2018-06-19T12:30:47.130Z,2.13
2018-06-19T12:33:16.402Z,2.10
2018-06-19T12:35:45.573Z,2.10
2018-06-19T12:38:14.672Z,1.90
2018-06-19T12:40:43.724Z,1.93
2018-06-19T12:43:12.845Z,2.03
2018-06-19T12:45:41.912Z,1.97
2018-06-19T12:48:10.980Z,13.77
2018-06-19T12:51:57.204Z,35.43
2018-06-19T12:54:43.276Z,53.00
2018-06-19T12:57:12.466Z,41.57
2018-06-19T12:59:41.468Z,19.50
2018-06-19T13:02:10.712Z,60.87
2018-06-19T13:04:51.120Z,9.10
2018-06-19T13:07:20.361Z,8.30
2018-06-19T13:09:49.437Z,5.57
2018-06-19T13:12:30.055Z,4.13
2018-06-19T13:14:59.679Z,3.40
2018-06-19T13:18:39.600Z,3.47
2018-06-19T13:21:08.682Z,1.87
2018-06-19T13:23:37.767Z,2.50
2018-06-19T13:26:06.827Z,2.93
2018-06-19T13:29:49.620Z,1.90
2018-06-19T13:32:18.776Z,1.90
2018-06-19T13:34:47.876Z,2.33
2018-06-19T13:37:17.341Z,2.07
2018-06-19T13:39:47.224Z,1.90
2018-06-19T13:42:40.808Z,2.00
2018-06-19T13:45:09.908Z,43.80
2018-06-19T13:47:38.999Z,86.03
2018-06-19T13:50:08.077Z,59.83
2018-06-19T13:52:37.203Z,40.10
2018-06-19T13:57:27.364Z,13.83
2018-06-19T13:59:56.876Z,2.47
2018-06-19T14:02:26.047Z,3.50
2018-06-19T14:04:55.244Z,2.10
2018-06-19T14:07:25.249Z,1.90
2018-06-19T14:10:05.897Z,2.20
2018-06-19T14:13:01.712Z,1.90
2018-06-19T14:15:34.944Z,2.10
2018-06-19T14:18:04.590Z,2.17
2018-06-19T14:20:33.763Z,1.87
2018-06-19T14:23:02.857Z,1.70
2018-06-19T14:25:31.914Z,1.83
2018-06-19T14:28:01.069Z,1.63
2018-06-19T14:30:30.427Z,2.20
2018-06-19T14:33:00.756Z,2.20
2018-06-19T14:35:30.640Z,1.70
2018-06-19T14:37:59.658Z,1.67
2018-06-19T14:40:28.889Z,1.83
2018-06-19T14:42:58.375Z,1.60
2018-06-19T14:45:27.470Z,2.13
2018-06-19T14:47:56.604Z,1.80
2018-06-19T14:50:25.668Z,1.80
2018-06-19T14:52:54.748Z,1.53
2018-06-19T14:55:24.064Z,38.13
2018-06-19T14:57:53.124Z,64.73
2018-06-19T15:00:22.348Z,81.30
2018-06-19T15:02:51.594Z,26.80
2018-06-19T15:05:20.725Z,20.23
2018-06-19T15:07:51.694Z,7.15
2018-06-19T15:10:20.842Z,16.90
2018-06-19T15:12:50.081Z,39.50
2018-06-19T15:15:19.102Z,155.55
2018-06-19T15:17:48.180Z,64.82
2018-06-19T15:20:17.380Z,68.83
2018-06-19T15:22:46.569Z,24.63
2018-06-19T15:25:15.649Z,23.30
2018-06-19T15:27:44.868Z,7.87
2018-06-19T15:30:15.305Z,6.53
2018-06-19T15:32:44.368Z,4.00
2018-06-19T15:35:13.981Z,2.40
2018-06-19T15:37:43.036Z,2.42
2018-06-19T15:40:12.248Z,2.40
2018-06-19T15:42:41.364Z,2.00
2018-06-19T15:45:10.460Z,1.90
2018-06-19T15:47:39.485Z,2.00
2018-06-19T15:50:08.684Z,1.82
2018-06-19T15:52:37.741Z,2.40
2018-06-19T15:55:06.544Z,1.90
2018-06-19T15:57:35.474Z,2.30
2018-06-19T16:00:04.624Z,2.30
2018-06-19T16:02:33.708Z,2.15
2018-06-19T16:05:02.760Z,2.00
2018-06-19T16:07:31.828Z,2.35
2018-06-19T16:10:00.985Z,1.60
2018-06-19T16:12:30.023Z,1.90
2018-06-19T16:14:59.123Z,1.77
2018-06-19T16:17:28.521Z,1.90
2018-06-19T16:19:57.716Z,2.20
2018-06-19T16:22:26.962Z,2.10
2018-06-19T16:24:56.044Z,2.10
2018-06-19T16:27:25.214Z,1.67
2018-06-19T16:29:54.353Z,1.80
2018-06-19T16:32:23.767Z,1.83
2018-06-19T16:38:25.271Z,1.72
2018-06-19T16:40:54.352Z,2.10
2018-06-19T16:43:23.426Z,2.20
2018-06-19T16:45:52.573Z,2.07
2018-06-19T16:48:21.754Z,2.20
2018-06-19T16:50:50.971Z,1.80
2018-06-19T16:53:20.806Z,2.43
2018-06-19T16:55:49.880Z,3.90
2018-06-19T16:58:19.309Z,7.43
2018-06-19T17:00:48.457Z,17.77
2018-06-19T17:03:17.916Z,47.67
2018-06-19T17:05:47.157Z,16.27
2018-06-19T17:08:16.297Z,9.70
2018-06-19T17:10:45.694Z,6.37
2018-06-19T17:13:15.452Z,2.57
2018-06-19T17:15:44.639Z,10.13
2018-06-19T17:18:13.990Z,7.70
2018-06-19T17:20:43.180Z,23.17
2018-06-19T17:23:12.258Z,37.97
2018-06-19T17:25:41.541Z,46.20
2018-06-19T17:28:10.640Z,18.67
2018-06-19T17:30:39.874Z,27.80
2018-06-19T17:33:08.953Z,8.77
2018-06-19T17:35:38.075Z,25.80
2018-06-19T17:38:07.590Z,7.43
2018-06-19T17:40:36.860Z,28.07
2018-06-19T17:43:06.190Z,5.63
2018-06-19T17:45:35.254Z,14.93
2018-06-19T17:48:04.410Z,11.80
2018-06-19T17:50:33.701Z,7.37
2018-06-19T17:53:03.248Z,4.70
2018-06-19T17:55:33.396Z,4.00
2018-06-19T17:58:02.701Z,4.73
2018-06-19T18:00:31.869Z,2.60
2018-06-19T18:03:01.068Z,3.47
2018-06-19T18:05:30.237Z,3.40
2018-06-19T18:07:59.440Z,3.17
2018-06-19T18:10:28.844Z,4.57
2018-06-19T18:12:58.164Z,2.47
2018-06-19T18:15:33.834Z,2.93
2018-06-19T18:18:02.809Z,5.67
2018-06-19T18:20:31.920Z,62.43
2018-06-19T18:23:01.631Z,128.13
2018-06-19T18:25:30.721Z,115.97
2018-06-19T18:27:59.800Z,71.13
2018-06-19T18:30:30.456Z,76.23
2018-06-19T18:32:59.597Z,61.03
2018-06-19T18:35:28.789Z,25.47
2018-06-19T18:37:58.695Z,46.50
2018-06-19T18:40:27.984Z,9.10
2018-06-19T18:42:57.022Z,21.07
2018-06-19T18:45:26.159Z,8.70
2018-06-19T18:47:55.189Z,3.50
2018-06-19T18:50:24.286Z,4.53
2018-06-19T18:52:53.319Z,8.50
2018-06-19T18:55:22.779Z,4.73
2018-06-19T18:57:51.944Z,12.93
2018-06-19T19:00:21.258Z,40.27
2018-06-19T19:02:50.444Z,33.73
2018-06-19T19:05:19.417Z,118.97
2018-06-19T19:07:48.572Z,75.90
2018-06-19T19:10:24.744Z,92.87
2018-06-19T19:12:54.010Z,49.63
2018-06-19T19:15:28.507Z,61.60
2018-06-19T19:18:03.044Z,123.27
2018-06-19T19:20:32.237Z,30.13
2018-06-19T19:23:01.354Z,37.13
2018-06-19T19:25:30.597Z,18.17
2018-06-19T19:28:05.329Z,37.37
2018-06-19T19:30:34.700Z,48.83
2018-06-19T19:33:03.866Z,66.77
2018-06-19T19:35:32.797Z,35.70
2018-06-19T19:38:07.313Z,20.33
2018-06-19T19:40:36.485Z,39.13
2018-06-19T19:43:05.736Z,16.57
2018-06-19T19:45:35.232Z,24.27
2018-06-19T19:48:09.554Z,10.53
2018-06-19T19:50:38.803Z,7.83
2018-06-19T19:53:07.887Z,10.60
2018-06-19T19:55:41.272Z,12.30
2018-06-19T19:58:15.895Z,11.40
2018-06-19T20:00:45.019Z,23.70
2018-06-19T20:03:14.145Z,87.67
2018-06-19T20:05:43.345Z,129.03
2018-06-19T20:08:16.658Z,98.83
2018-06-19T20:10:45.857Z,66.57
2018-06-19T20:13:15.198Z,64.93
2018-06-19T20:15:44.625Z,53.97
2018-06-19T20:18:13.812Z,24.03
2018-06-19T20:20:43.039Z,23.13
2018-06-19T20:23:12.283Z,13.83
2018-06-19T20:25:41.445Z,7.97
2018-06-19T20:28:10.601Z,9.73
2018-06-19T20:30:39.704Z,9.03
2018-06-19T20:33:08.932Z,11.33
2018-06-19T20:35:39.309Z,8.70
2018-06-19T20:38:08.609Z,6.87
2018-06-19T20:40:38.212Z,7.40
2018-06-19T20:43:07.237Z,5.90
2018-06-19T20:45:36.352Z,6.70
2018-06-19T20:48:05.537Z,4.30
2018-06-19T20:50:34.614Z,4.23
2018-06-19T20:53:03.812Z,3.87
2018-06-19T20:55:33.037Z,27.80
2018-06-19T20:58:04.736Z,47.80
2018-06-19T21:00:35.917Z,35.10
2018-06-19T21:03:05.062Z,27.57
2018-06-19T21:05:34.333Z,24.93
2018-06-19T21:08:03.845Z,32.10
2018-06-19T21:10:35.711Z,46.57
2018-06-19T21:13:05.682Z,27.70
2018-06-19T21:15:35.667Z,24.67
2018-06-19T21:18:06.036Z,17.87
2018-06-19T21:20:46.016Z,10.03
2018-06-19T21:23:33.209Z,9.90
2018-06-19T21:26:02.487Z,9.63
2018-06-19T21:28:31.840Z,7.37
2018-06-19T21:31:00.924Z,5.90
2018-06-19T21:33:30.023Z,6.10
2018-06-19T21:35:59.427Z,4.53
2018-06-19T21:38:28.628Z,3.50
2018-06-19T21:40:57.680Z,3.90
2018-06-19T21:43:26.853Z,4.20
2018-06-19T21:45:55.927Z,2.73
2018-06-19T21:48:25.001Z,3.30
2018-06-19T21:50:54.088Z,3.20
2018-06-19T21:53:23.363Z,3.10
2018-06-19T21:55:52.464Z,15.90
2018-06-19T21:58:21.628Z,14.80
2018-06-19T22:00:50.727Z,31.20
2018-06-19T22:03:19.900Z,61.17
2018-06-19T22:05:49.147Z,65.37
2018-06-19T22:08:18.282Z,45.57
2018-06-19T22:10:47.345Z,31.03
2018-06-19T22:13:16.408Z,30.60
2018-06-19T22:15:45.667Z,20.77
2018-06-19T22:18:14.804Z,17.47
2018-06-19T22:20:43.917Z,11.83
2018-06-19T22:23:12.989Z,8.17
2018-06-19T22:25:42.436Z,9.90
2018-06-19T22:28:11.785Z,8.70
2018-06-19T22:30:40.974Z,7.17
2018-06-19T22:33:09.864Z,5.17
2018-06-19T22:35:38.797Z,4.30
2018-06-19T22:38:07.984Z,4.47
2018-06-19T22:40:37.060Z,6.00
2018-06-19T22:43:06.194Z,8.63
2018-06-19T22:45:35.267Z,16.20
2018-06-19T22:48:04.332Z,37.40
2018-06-19T22:50:33.547Z,33.57
2018-06-19T22:53:02.654Z,11.73
2018-06-19T22:55:31.904Z,10.97
2018-06-19T22:58:01.162Z,12.80
2018-06-19T23:00:30.251Z,14.20
2018-06-19T23:03:05.460Z,14.73
2018-06-19T23:05:36.078Z,7.27
2018-06-19T23:08:05.460Z,13.47
2018-06-19T23:10:34.584Z,7.97
2018-06-19T23:13:03.680Z,20.13
2018-06-19T23:15:32.844Z,10.27
2018-06-19T23:18:01.896Z,6.27
2018-06-19T23:20:31.007Z,6.20
2018-06-19T23:23:00.081Z,9.87
2018-06-19T23:25:29.177Z,24.33
2018-06-19T23:27:58.292Z,25.57
2018-06-19T23:30:27.591Z,36.60
2018-06-19T23:32:56.697Z,36.27
2018-06-19T23:35:25.773Z,32.97
2018-06-19T23:37:55.089Z,19.93
2018-06-19T23:40:24.149Z,22.53
2018-06-19T23:42:53.243Z,16.07
2018-06-19T23:45:22.298Z,8.97
2018-06-19T23:47:51.391Z,8.40
2018-06-19T23:50:20.464Z,7.83
2018-06-19T23:52:49.571Z,8.77
2018-06-19T23:55:18.741Z,6.93
2018-06-19T23:57:47.841Z,6.40
